createdAt,value
2023-04-26T00:01:58.799Z,97231.41
2023-04-26T00:04:25.778Z,97230.44
2023-04-26T00:06:52.748Z,97232.03
2023-04-26T00:09:19.695Z,97230.09
2023-04-26T00:11:46.568Z,97229.97
2023-04-26T00:14:14.107Z,97228.06
2023-04-26T00:16:40.868Z,97222.97
2023-04-26T00:19:08.007Z,97227.34
2023-04-26T00:21:35.138Z,97233.44
2023-04-26T00:24:01.802Z,97226.69
2023-04-26T00:26:28.614Z,97222.44
2023-04-26T00:28:55.395Z,97226.16
2023-04-26T00:31:22.260Z,97228.31
2023-04-26T00:33:48.994Z,97232.63
2023-04-26T00:36:19.185Z,97220.78
2023-04-26T00:38:46.801Z,97229.22
2023-04-26T00:41:14.257Z,97225.06
2023-04-26T00:43:41.324Z,97235.75
2023-04-26T00:46:09.863Z,97232.22
2023-04-26T00:48:37.661Z,97229.25
2023-04-26T00:51:05.918Z,97236.50
2023-04-26T00:53:34.297Z,97225.97
2023-04-26T00:56:01.773Z,97234.47
2023-04-26T00:58:29.629Z,97228.56
2023-04-26T01:00:56.827Z,97222.19
2023-04-26T01:03:23.893Z,97224.53
2023-04-26T01:05:51.018Z,97229.75
2023-04-26T01:08:20.935Z,97236.16
2023-04-26T01:10:48.752Z,97234.25
2023-04-26T01:13:16.610Z,97238.63
2023-04-26T01:15:47.357Z,97241.69
2023-04-26T01:18:15.019Z,97240.63
2023-04-26T01:20:43.063Z,97230.34
2023-04-26T01:23:11.714Z,97241.84
2023-04-26T01:25:39.112Z,97242.31
2023-04-26T01:28:05.995Z,97244.91
2023-04-26T01:30:32.716Z,97237.09
2023-04-26T01:33:03.027Z,97227.16
2023-04-26T01:35:29.848Z,97237.09
2023-04-26T01:37:56.585Z,97238.66
2023-04-26T01:40:23.245Z,97241.59
2023-04-26T01:42:49.911Z,97246.13
2023-04-26T01:45:17.530Z,97244.22
2023-04-26T01:48:03.014Z,97266.50
2023-04-26T01:50:32.081Z,97269.44
2023-04-26T01:52:58.768Z,97274.53
2023-04-26T01:55:25.443Z,97270.72
2023-04-26T01:57:52.098Z,97273.81
2023-04-26T02:00:19.093Z,97271.59
2023-04-26T02:02:49.208Z,97271.19
2023-04-26T02:05:16.119Z,97270.16
2023-04-26T02:07:42.861Z,97284.03
2023-04-26T02:10:09.624Z,97284.25
2023-04-26T02:12:36.450Z,97287.47
2023-04-26T02:15:03.288Z,97278.22
2023-04-26T02:17:29.950Z,97282.25
2023-04-26T02:19:57.047Z,97281.28
2023-04-26T02:22:25.362Z,97287.56
2023-04-26T02:24:52.839Z,97286.84
2023-04-26T02:27:19.984Z,97288.06
2023-04-26T02:29:46.865Z,97287.34
2023-04-26T02:32:14.366Z,97280.44
2023-04-26T02:34:41.498Z,97276.91
2023-04-26T02:37:08.945Z,97275.72
2023-04-26T02:39:35.986Z,97281.09
2023-04-26T02:42:02.803Z,97273.25
2023-04-26T02:44:31.040Z,97272.53
2023-04-26T02:46:58.198Z,97271.47
2023-04-26T02:49:25.087Z,97268.53
2023-04-26T02:51:51.921Z,97267.69
2023-04-26T02:54:18.962Z,97272.66
2023-04-26T02:56:45.647Z,97280.94
2023-04-26T02:59:12.380Z,97273.94
2023-04-26T03:01:39.144Z,97266.69
2023-04-26T03:04:06.499Z,97277.13
2023-04-26T03:06:35.420Z,97278.94
2023-04-26T03:09:02.310Z,97278.22
2023-04-26T03:11:28.972Z,97278.44
2023-04-26T03:13:56.865Z,97277.97
2023-04-26T03:16:24.148Z,97281.88
2023-04-26T03:18:51.201Z,97285.47
2023-04-26T03:21:18.138Z,97282.69
2023-04-26T03:23:45.184Z,97278.75
2023-04-26T03:26:12.351Z,97288.56
2023-04-26T03:28:39.112Z,97293.59
2023-04-26T03:31:05.957Z,97293.97
2023-04-26T03:33:32.739Z,97298.38
2023-04-26T03:35:59.406Z,97299.25
2023-04-26T03:38:26.283Z,97297.97
2023-04-26T03:40:52.997Z,97298.78
2023-04-26T03:43:19.673Z,97304.63
2023-04-26T03:45:51.572Z,97313.00
2023-04-26T03:48:18.466Z,97314.59
2023-04-26T03:50:46.047Z,97317.75
2023-04-26T03:53:13.256Z,97316.19
2023-04-26T03:55:40.261Z,97324.00
2023-04-26T03:58:08.171Z,97328.66
2023-04-26T04:00:37.894Z,97335.97
2023-04-26T04:03:05.725Z,97344.56
2023-04-26T04:05:33.165Z,97337.91
2023-04-26T04:08:00.045Z,97342.63
2023-04-26T04:10:26.748Z,97338.06
2023-04-26T04:12:55.047Z,97353.56
2023-04-26T04:15:21.825Z,97351.69
2023-04-26T04:17:49.272Z,97352.91
2023-04-26T04:20:16.039Z,97353.53
2023-04-26T04:22:43.028Z,97355.19
2023-04-26T04:25:14.115Z,97353.94
2023-04-26T04:27:45.193Z,97371.50
2023-04-26T04:30:12.576Z,97363.56
2023-04-26T04:32:40.431Z,97366.81
2023-04-26T04:35:07.853Z,97370.38
2023-04-26T04:37:35.095Z,97375.13
2023-04-26T04:40:04.580Z,97377.28
2023-04-26T04:42:34.990Z,97378.25
2023-04-26T04:45:05.243Z,97378.22
2023-04-26T04:47:34.142Z,97387.03
2023-04-26T04:50:00.925Z,97379.41
2023-04-26T04:52:28.050Z,97374.50
2023-04-26T04:54:54.784Z,97378.66
2023-04-26T04:57:21.523Z,97394.63
2023-04-26T04:59:48.188Z,97374.28
2023-04-26T05:02:15.791Z,97385.38
2023-04-26T05:04:42.706Z,97381.91
2023-04-26T05:07:09.611Z,97385.19
2023-04-26T05:09:38.810Z,97379.25
2023-04-26T05:12:07.077Z,97386.88
2023-04-26T05:14:33.985Z,97392.13
2023-04-26T05:17:01.020Z,97401.53
2023-04-26T05:19:28.011Z,97398.06
2023-04-26T05:21:57.211Z,97407.00
2023-04-26T05:24:24.276Z,97408.47
2023-04-26T05:26:51.424Z,97412.75
2023-04-26T05:29:18.424Z,97417.59
2023-04-26T05:31:54.096Z,97422.84
2023-04-26T05:34:30.428Z,97418.75
2023-04-26T05:36:58.390Z,97425.63
2023-04-26T05:39:25.395Z,97429.84
2023-04-26T05:41:52.376Z,97437.16
2023-04-26T05:44:19.022Z,97440.91
2023-04-26T05:46:47.301Z,97438.38
2023-04-26T05:49:14.391Z,97440.94
2023-04-26T05:51:41.156Z,97452.81
2023-04-26T05:54:07.813Z,97457.78
2023-04-26T05:56:34.881Z,97452.03
2023-04-26T05:59:01.695Z,97457.78
2023-04-26T06:01:28.435Z,97461.00
2023-04-26T06:03:58.071Z,97460.78
2023-04-26T06:06:30.617Z,97464.50
2023-04-26T06:08:57.588Z,97459.56
2023-04-26T06:11:24.268Z,97454.81
2023-04-26T06:13:51.316Z,97458.63
2023-04-26T06:16:18.441Z,97452.97
2023-04-26T06:18:45.094Z,97441.94
2023-04-26T06:21:12.444Z,97443.13
2023-04-26T06:23:39.193Z,97450.22
2023-04-26T06:26:06.122Z,97440.59
2023-04-26T06:28:32.809Z,97443.53
2023-04-26T06:30:59.560Z,97456.06
2023-04-26T06:33:26.451Z,97446.72
2023-04-26T06:35:53.107Z,97456.28
2023-04-26T06:38:19.908Z,97456.16
2023-04-26T06:40:46.748Z,97464.81
2023-04-26T06:43:13.834Z,97460.31
2023-04-26T06:46:06.725Z,97454.88
2023-04-26T06:48:33.554Z,97449.25
2023-04-26T06:51:05.702Z,97455.25
2023-04-26T06:53:32.374Z,97456.25
2023-04-26T06:55:59.019Z,97459.38
2023-04-26T06:58:25.752Z,97455.06
2023-04-26T07:00:52.454Z,97453.38
2023-04-26T07:03:19.172Z,97460.75
2023-04-26T07:05:45.930Z,97455.16
2023-04-26T07:08:12.681Z,97450.13
2023-04-26T07:10:40.128Z,97459.34
2023-04-26T07:13:09.310Z,97452.38
2023-04-26T07:15:36.439Z,97459.38
2023-04-26T07:18:03.122Z,97451.19
2023-04-26T07:20:29.822Z,97447.25
2023-04-26T07:23:07.810Z,97456.50
2023-04-26T07:25:34.568Z,97441.75
2023-04-26T07:28:01.230Z,97454.00
2023-04-26T07:30:27.873Z,97460.41
2023-04-26T07:32:54.572Z,97458.75
2023-04-26T07:35:21.361Z,97463.81
2023-04-26T07:37:48.259Z,97454.72
2023-04-26T07:40:15.297Z,97464.69
2023-04-26T07:42:42.010Z,97461.56
2023-04-26T07:45:09.364Z,97466.00
2023-04-26T07:47:36.501Z,97455.38
2023-04-26T07:50:03.206Z,97460.38
2023-04-26T07:52:29.944Z,97467.03
2023-04-26T07:54:56.612Z,97468.63
2023-04-26T07:57:23.302Z,97468.84
2023-04-26T07:59:50.008Z,97461.81
2023-04-26T08:02:17.075Z,97467.94
2023-04-26T08:04:55.527Z,97464.75
2023-04-26T08:07:22.718Z,97469.44
2023-04-26T08:09:49.361Z,97475.25
2023-04-26T08:12:16.585Z,97467.19
2023-04-26T08:14:43.258Z,97471.44
2023-04-26T08:17:10.061Z,97465.81
2023-04-26T08:19:37.039Z,97462.50
2023-04-26T08:22:04.103Z,97464.84
2023-04-26T08:24:30.846Z,97471.13
2023-04-26T08:26:59.051Z,97459.22
2023-04-26T08:29:27.529Z,97460.91
2023-04-26T08:31:54.227Z,97462.56
2023-04-26T08:34:20.980Z,97469.16
2023-04-26T08:36:47.710Z,97463.53
2023-04-26T08:39:14.308Z,97472.13
2023-04-26T08:41:49.493Z,97463.38
2023-04-26T08:44:17.941Z,97470.13
2023-04-26T08:46:57.947Z,97472.56
2023-04-26T08:49:42.352Z,97478.06
2023-04-26T08:52:11.715Z,97468.94
2023-04-26T08:54:40.341Z,97471.06
2023-04-26T08:57:08.311Z,97472.19
2023-04-26T08:59:39.017Z,97471.53
2023-04-26T09:02:07.169Z,97474.81
2023-04-26T09:04:34.344Z,97470.03
2023-04-26T09:07:02.584Z,97478.63
2023-04-26T09:09:37.800Z,97481.31
2023-04-26T09:12:04.883Z,97470.13
2023-04-26T09:14:31.721Z,97480.06
2023-04-26T09:16:58.445Z,97476.53
2023-04-26T09:19:40.137Z,97475.06
2023-04-26T09:22:07.316Z,97471.53
2023-04-26T09:24:50.529Z,97461.28
2023-04-26T09:27:17.720Z,97470.94
2023-04-26T09:30:05.926Z,97469.63
2023-04-26T09:32:52.991Z,97462.38
2023-04-26T09:35:27.455Z,97463.91
2023-04-26T09:38:07.923Z,97462.78
2023-04-26T09:40:41.215Z,97464.38
2023-04-26T09:43:09.049Z,97454.06
2023-04-26T09:46:02.024Z,97454.81
2023-04-26T09:48:31.092Z,97458.34
2023-04-26T09:51:00.004Z,97468.47
2023-04-26T09:53:39.418Z,97462.25
2023-04-26T09:56:14.611Z,97463.28
2023-04-26T09:58:44.140Z,97463.81
2023-04-26T10:01:11.881Z,97470.56
2023-04-26T10:03:39.776Z,97468.63
2023-04-26T10:06:07.220Z,97457.81
2023-04-26T10:08:34.378Z,97449.59
2023-04-26T10:11:04.183Z,97448.88
2023-04-26T10:13:35.145Z,97451.94
2023-04-26T10:16:02.341Z,97444.31
2023-04-26T10:18:30.093Z,97446.56
2023-04-26T10:21:00.803Z,97439.78
2023-04-26T10:23:27.897Z,97439.31
2023-04-26T10:25:55.829Z,97441.63
2023-04-26T10:28:41.394Z,97430.25
2023-04-26T10:31:08.171Z,97431.53
2023-04-26T10:33:34.850Z,97427.88
2023-04-26T10:36:05.343Z,97425.13
2023-04-26T10:38:33.059Z,97425.63
2023-04-26T10:41:27.857Z,97412.28
2023-04-26T10:43:55.304Z,97419.69
2023-04-26T10:46:36.847Z,97421.94
2023-04-26T10:49:26.414Z,97428.97
2023-04-26T10:52:13.585Z,97429.41
2023-04-26T10:54:47.231Z,97417.69
2023-04-26T10:57:14.735Z,97421.06
2023-04-26T11:00:10.458Z,97415.41
2023-04-26T11:02:46.832Z,97415.13
2023-04-26T11:05:53.186Z,97402.66
2023-04-26T11:08:32.333Z,97389.78
2023-04-26T11:11:05.177Z,97393.88
2023-04-26T11:13:42.037Z,97398.22
2023-04-26T11:16:10.688Z,97396.91
2023-04-26T11:18:39.296Z,97392.75
2023-04-26T11:21:07.204Z,97394.06
2023-04-26T11:23:35.372Z,97390.72
2023-04-26T11:26:04.230Z,97396.72
2023-04-26T11:28:34.112Z,97387.28
2023-04-26T11:31:03.050Z,97389.38
2023-04-26T11:33:30.149Z,97388.72
2023-04-26T11:35:58.249Z,97384.88
2023-04-26T11:38:26.382Z,97385.09
2023-04-26T11:41:03.604Z,97383.13
2023-04-26T11:43:40.075Z,97392.34
2023-04-26T11:46:08.649Z,97381.91
2023-04-26T11:48:37.097Z,97385.97
2023-04-26T11:51:05.123Z,97377.84
2023-04-26T11:53:42.260Z,97385.88
2023-04-26T11:56:20.304Z,97394.41
2023-04-26T11:58:48.956Z,97391.03
2023-04-26T12:01:21.629Z,97389.69
2023-04-26T12:03:51.584Z,97384.34
2023-04-26T12:06:18.422Z,97389.13
2023-04-26T12:08:51.865Z,97383.94
2023-04-26T12:11:19.017Z,97377.31
2023-04-26T12:13:46.663Z,97377.38
2023-04-26T12:16:25.547Z,97377.75
2023-04-26T12:18:54.384Z,97377.13
2023-04-26T12:21:21.190Z,97365.53
2023-04-26T12:23:49.051Z,97368.22
2023-04-26T12:26:15.952Z,97365.34
2023-04-26T12:28:42.841Z,97358.81
2023-04-26T12:31:09.619Z,97361.94
2023-04-26T12:33:37.058Z,97359.22
2023-04-26T12:36:08.504Z,97360.00
2023-04-26T12:38:35.391Z,97352.50
2023-04-26T12:41:02.254Z,97355.59
2023-04-26T12:43:29.148Z,97352.38
2023-04-26T12:45:56.297Z,97357.97
2023-04-26T12:48:23.239Z,97354.53
2023-04-26T12:50:51.209Z,97355.31
2023-04-26T12:53:18.657Z,97359.47
2023-04-26T12:55:45.364Z,97347.75
2023-04-26T12:58:12.397Z,97348.88
2023-04-26T13:00:39.231Z,97356.16
2023-04-26T13:03:06.099Z,97354.50
2023-04-26T13:05:33.030Z,97350.03
2023-04-26T13:08:02.204Z,97351.06
2023-04-26T13:10:28.966Z,97349.13
2023-04-26T13:12:55.961Z,97348.66
2023-04-26T13:15:24.721Z,97349.16
2023-04-26T13:17:51.523Z,97344.50
2023-04-26T13:20:18.313Z,97347.38
2023-04-26T13:22:44.992Z,97354.50
2023-04-26T13:25:13.218Z,97355.69
2023-04-26T13:27:39.951Z,97355.06
2023-04-26T13:30:07.560Z,97356.88
2023-04-26T13:32:34.848Z,97360.81
2023-04-26T13:35:02.040Z,97355.19
2023-04-26T13:37:28.723Z,97349.81
2023-04-26T13:39:55.428Z,97349.59
2023-04-26T13:42:22.158Z,97351.44
2023-04-26T13:44:48.940Z,97353.16
2023-04-26T13:47:15.652Z,97351.75
2023-04-26T13:49:43.009Z,97358.94
2023-04-26T13:52:09.966Z,97357.38
2023-04-26T13:54:37.146Z,97357.19
2023-04-26T13:57:04.531Z,97353.88
2023-04-26T13:59:31.519Z,97357.44
2023-04-26T14:01:59.253Z,97362.47
2023-04-26T14:04:26.648Z,97371.44
2023-04-26T14:06:53.738Z,97358.06
2023-04-26T14:09:20.429Z,97360.84
2023-04-26T14:11:51.413Z,97362.13
2023-04-26T14:14:20.912Z,97353.91
2023-04-26T14:16:47.699Z,97357.22
2023-04-26T14:19:17.225Z,97348.63
2023-04-26T14:21:44.143Z,97361.78
2023-04-26T14:24:11.593Z,97355.88
2023-04-26T14:26:38.571Z,97360.81
2023-04-26T14:29:05.294Z,97355.22
2023-04-26T14:31:32.830Z,97362.03
2023-04-26T14:33:59.619Z,97366.81
2023-04-26T14:36:26.353Z,97361.41
2023-04-26T14:38:53.067Z,97366.50
2023-04-26T14:41:20.266Z,97364.69
2023-04-26T14:43:47.178Z,97357.16
2023-04-26T14:46:14.584Z,97357.28
2023-04-26T14:48:43.687Z,97362.91
2023-04-26T14:51:10.472Z,97360.34
2023-04-26T14:53:37.166Z,97363.97
2023-04-26T14:56:06.062Z,97360.59
2023-04-26T14:58:32.848Z,97360.47
2023-04-26T15:00:59.749Z,97362.56
2023-04-26T15:03:27.476Z,97351.22
2023-04-26T15:05:54.341Z,97358.00
2023-04-26T15:08:20.977Z,97356.91
2023-04-26T15:10:47.614Z,97367.50
2023-04-26T15:13:14.266Z,97363.09
2023-04-26T15:15:40.935Z,97362.66
2023-04-26T15:18:07.765Z,97354.81
2023-04-26T15:20:34.473Z,97351.41
2023-04-26T15:23:01.131Z,97353.78
2023-04-26T15:25:27.836Z,97366.09
2023-04-26T15:27:54.480Z,97366.31
2023-04-26T15:30:21.328Z,97364.00
2023-04-26T15:32:49.855Z,97364.34
2023-04-26T15:35:17.047Z,97372.41
2023-04-26T15:37:44.215Z,97367.75
2023-04-26T15:40:12.072Z,97360.22
2023-04-26T15:42:39.327Z,97368.88
2023-04-26T15:45:07.013Z,97370.09
2023-04-26T15:47:36.550Z,97372.56
2023-04-26T15:50:04.666Z,97366.50
2023-04-26T15:52:36.886Z,97368.00
2023-04-26T15:55:07.210Z,97382.88
2023-04-26T15:57:34.722Z,97377.63
2023-04-26T16:00:01.907Z,97374.13
2023-04-26T16:02:31.219Z,97381.75
2023-04-26T16:04:58.125Z,97378.38
2023-04-26T16:07:24.902Z,97377.91
2023-04-26T16:09:51.572Z,97379.91
2023-04-26T16:12:18.254Z,97380.91
2023-04-26T16:14:44.954Z,97383.03
2023-04-26T16:17:11.628Z,97388.97
2023-04-26T16:19:38.321Z,97386.31
2023-04-26T16:22:05.127Z,97383.28
2023-04-26T16:24:31.796Z,97386.59
2023-04-26T16:26:58.802Z,97391.25
2023-04-26T16:29:25.590Z,97391.78
2023-04-26T16:31:52.755Z,97388.81
2023-04-26T16:34:19.995Z,97398.75
2023-04-26T16:36:46.809Z,97395.63
2023-04-26T16:39:15.786Z,97391.16
2023-04-26T16:41:43.060Z,97396.28
2023-04-26T16:44:09.929Z,97399.75
2023-04-26T16:46:37.070Z,97393.47
2023-04-26T16:49:09.418Z,97398.59
2023-04-26T16:51:37.991Z,97396.81
2023-04-26T16:54:04.944Z,97405.72
2023-04-26T16:56:32.311Z,97398.97
2023-04-26T16:58:59.601Z,97400.41
2023-04-26T17:01:26.414Z,97401.38
2023-04-26T17:03:53.329Z,97400.34
2023-04-26T17:06:20.705Z,97404.22
2023-04-26T17:08:47.707Z,97405.31
2023-04-26T17:11:15.845Z,97415.28
2023-04-26T17:13:43.348Z,97420.31
2023-04-26T17:16:10.445Z,97420.38
2023-04-26T17:18:37.314Z,97418.97
2023-04-26T17:21:05.008Z,97427.13
2023-04-26T17:23:33.483Z,97430.00
2023-04-26T17:26:01.814Z,97435.81
2023-04-26T17:28:29.075Z,97434.41
2023-04-26T17:30:55.784Z,97441.84
2023-04-26T17:33:22.595Z,97443.41
2023-04-26T17:35:49.401Z,97447.75
2023-04-26T17:38:16.302Z,97448.88
2023-04-26T17:40:43.115Z,97454.72
2023-04-26T17:43:09.765Z,97453.81
2023-04-26T17:45:36.483Z,97460.22
2023-04-26T17:48:03.401Z,97459.97
2023-04-26T17:50:30.403Z,97454.25
2023-04-26T17:52:57.165Z,97460.16
2023-04-26T17:55:23.951Z,97459.31
2023-04-26T17:57:50.665Z,97469.19
2023-04-26T18:00:18.106Z,97475.16
2023-04-26T18:02:44.855Z,97485.00
2023-04-26T18:05:11.854Z,97481.56
2023-04-26T18:07:38.621Z,97496.22
2023-04-26T18:10:06.556Z,97500.91
2023-04-26T18:12:33.260Z,97499.00
2023-04-26T18:15:00.050Z,97501.22
2023-04-26T18:17:27.108Z,97514.19
2023-04-26T18:19:54.052Z,97513.78
2023-04-26T18:22:20.962Z,97518.88
2023-04-26T18:24:47.646Z,97521.91
2023-04-26T18:27:14.365Z,97531.44
2023-04-26T18:29:41.453Z,97528.41
2023-04-26T18:32:08.290Z,97517.34
2023-04-26T18:34:35.021Z,97531.28
2023-04-26T18:37:01.700Z,97526.31
2023-04-26T18:39:28.494Z,97529.81
2023-04-26T18:41:55.479Z,97534.50
2023-04-26T18:44:22.340Z,97538.06
2023-04-26T18:46:50.002Z,97548.63
2023-04-26T18:49:18.099Z,97549.81
2023-04-26T18:51:45.175Z,97549.00
2023-04-26T18:54:12.671Z,97556.53
2023-04-26T18:56:41.314Z,97557.50
2023-04-26T18:59:08.536Z,97561.84
2023-04-26T19:01:36.688Z,97569.16
2023-04-26T19:04:04.471Z,97570.06
2023-04-26T19:06:33.179Z,97566.16
2023-04-26T19:09:01.632Z,97572.63
2023-04-26T19:11:28.899Z,97570.25
2023-04-26T19:13:56.821Z,97578.72
2023-04-26T19:16:23.888Z,97583.41
2023-04-26T19:18:52.344Z,97585.81
2023-04-26T19:21:19.119Z,97590.34
2023-04-26T19:23:46.810Z,97596.31
2023-04-26T19:26:13.703Z,97596.03
2023-04-26T19:28:40.924Z,97596.41
2023-04-26T19:31:08.538Z,97603.66
2023-04-26T19:33:37.210Z,97609.50
2023-04-26T19:36:04.230Z,97607.25
2023-04-26T19:38:31.470Z,97615.47
2023-04-26T19:40:58.208Z,97622.88
2023-04-26T19:43:24.891Z,97624.06
2023-04-26T19:45:51.804Z,97633.56
2023-04-26T19:48:18.972Z,97626.31
2023-04-26T19:50:46.803Z,97639.75
2023-04-26T19:53:16.019Z,97634.44
2023-04-26T19:55:43.532Z,97637.16
2023-04-26T19:58:11.262Z,97645.81
2023-04-26T20:00:38.769Z,97649.97
2023-04-26T20:03:06.702Z,97654.28
2023-04-26T20:05:34.181Z,97651.50
2023-04-26T20:08:01.766Z,97664.38
2023-04-26T20:10:34.210Z,97655.09
2023-04-26T20:13:02.831Z,97660.91
2023-04-26T20:15:33.467Z,97655.94
2023-04-26T20:18:02.684Z,97654.38
2023-04-26T20:20:30.867Z,97652.03
2023-04-26T20:22:58.273Z,97655.56
2023-04-26T20:25:26.443Z,97662.34
2023-04-26T20:27:53.576Z,97655.47
2023-04-26T20:30:21.960Z,97663.09
2023-04-26T20:32:50.342Z,97661.41
2023-04-26T20:35:17.245Z,97663.94
2023-04-26T20:37:44.750Z,97657.97
2023-04-26T20:40:12.147Z,97655.59
2023-04-26T20:42:39.984Z,97661.41
2023-04-26T20:45:07.793Z,97660.59
2023-04-26T20:47:36.818Z,97661.91
2023-04-26T20:50:04.771Z,97664.03
2023-04-26T20:52:32.199Z,97659.75
2023-04-26T20:54:58.902Z,97662.97
2023-04-26T20:57:26.003Z,97658.81
2023-04-26T20:59:52.980Z,97660.91
2023-04-26T21:02:19.747Z,97671.50
2023-04-26T21:04:47.004Z,97671.50
2023-04-26T21:07:13.902Z,97674.72
2023-04-26T21:09:40.514Z,97672.34
2023-04-26T21:12:07.411Z,97674.00
2023-04-26T21:14:34.034Z,97678.78
2023-04-26T21:17:01.448Z,97684.00
2023-04-26T21:19:28.246Z,97683.41
2023-04-26T21:21:54.952Z,97686.97
2023-04-26T21:24:21.653Z,97687.34
2023-04-26T21:26:48.309Z,97689.97
2023-04-26T21:29:14.952Z,97697.09
2023-04-26T21:31:41.713Z,97706.22
2023-04-26T21:34:08.462Z,97708.75
2023-04-26T21:36:35.111Z,97705.66
2023-04-26T21:39:01.738Z,97708.75
2023-04-26T21:41:28.397Z,97714.81
2023-04-26T21:43:56.057Z,97714.91
2023-04-26T21:46:23.075Z,97713.63
2023-04-26T21:48:49.727Z,97721.34
2023-04-26T21:51:16.483Z,97725.59
2023-04-26T21:53:43.716Z,97726.53
2023-04-26T21:56:10.420Z,97723.22
2023-04-26T21:58:37.136Z,97722.03
2023-04-26T22:01:09.896Z,97727.03
2023-04-26T22:03:37.423Z,97731.53
2023-04-26T22:06:05.154Z,97739.66
2023-04-26T22:08:32.142Z,97741.66
2023-04-26T22:10:59.620Z,97746.09
2023-04-26T22:13:26.421Z,97743.34
2023-04-26T22:15:53.123Z,97750.28
2023-04-26T22:18:19.857Z,97751.19
2023-04-26T22:20:46.532Z,97747.50
2023-04-26T22:23:13.331Z,97752.16
2023-04-26T22:25:40.077Z,97754.06
2023-04-26T22:28:06.810Z,97756.19
2023-04-26T22:30:33.455Z,97757.75
2023-04-26T22:33:00.274Z,97760.84
2023-04-26T22:35:27.932Z,97770.00
2023-04-26T22:37:55.451Z,97772.50
2023-04-26T22:40:22.165Z,97773.47
2023-04-26T22:42:48.983Z,97784.41
2023-04-26T22:45:15.874Z,97787.03
2023-04-26T22:47:42.722Z,97787.13
2023-04-26T22:50:09.872Z,97784.75
2023-04-26T22:52:36.808Z,97787.94
2023-04-26T22:55:03.602Z,97791.97
2023-04-26T22:57:31.046Z,97792.22
2023-04-26T22:59:58.265Z,97792.22
2023-04-26T23:02:25.140Z,97796.25
2023-04-26T23:04:52.048Z,97790.19
2023-04-26T23:07:18.904Z,97789.00
2023-04-26T23:09:45.694Z,97794.56
2023-04-26T23:12:17.038Z,97783.63
2023-04-26T23:14:43.734Z,97795.13
2023-04-26T23:17:12.937Z,97792.00
2023-04-26T23:19:39.723Z,97791.28
2023-04-26T23:22:06.506Z,97796.13
2023-04-26T23:24:33.171Z,97806.28
2023-04-26T23:26:59.886Z,97813.13
2023-04-26T23:29:26.536Z,97808.31
2023-04-26T23:31:53.402Z,97812.31
2023-04-26T23:34:20.150Z,97804.81
2023-04-26T23:36:46.805Z,97821.13
2023-04-26T23:39:13.680Z,97807.75
2023-04-26T23:41:40.678Z,97811.44
2023-04-26T23:44:07.337Z,97812.06
2023-04-26T23:46:34.037Z,97800.66
2023-04-26T23:49:00.875Z,97812.97
2023-04-26T23:51:27.678Z,97808.41
2023-04-26T23:53:54.545Z,97808.50
2023-04-26T23:56:21.350Z,97802.69
2023-04-26T23:58:48.061Z,97799.78
